sensor_id;sensor_type;location;lat;lon;timestamp;P1;durP1;ratioP1;P2;durP2;ratioP2
56307;SDS011;42217;50.422;7.210;2022-11-20T00:01:39;24.27;;;13.27;;
56307;SDS011;42217;50.422;7.210;2022-11-20T00:04:05;24.10;;;12.13;;
56307;SDS011;42217;50.422;7.210;2022-11-20T00:06:31;22.87;;;13.40;;
56307;SDS011;42217;50.422;7.210;2022-11-20T00:08:58;23.40;;;11.17;;
56307;SDS011;42217;50.422;7.210;2022-11-20T00:11:25;20.33;;;11.80;;
56307;SDS011;42217;50.422;7.210;2022-11-20T00:13:53;20.10;;;12.07;;
56307;SDS011;42217;50.422;7.210;2022-11-20T00:16:22;19.00;;;11.27;;
56307;SDS011;42217;50.422;7.210;2022-11-20T00:18:49;22.77;;;10.73;;
56307;SDS011;42217;50.422;7.210;2022-11-20T00:21:16;18.10;;;11.10;;
56307;SDS011;42217;50.422;7.210;2022-11-20T00:23:46;22.37;;;12.10;;
56307;SDS011;42217;50.422;7.210;2022-11-20T00:26:13;24.20;;;12.17;;
56307;SDS011;42217;50.422;7.210;2022-11-20T00:28:40;22.83;;;11.60;;
56307;SDS011;42217;50.422;7.210;2022-11-20T00:31:08;26.87;;;14.07;;
56307;SDS011;42217;50.422;7.210;2022-11-20T00:33:35;21.13;;;13.17;;
56307;SDS011;42217;50.422;7.210;2022-11-20T00:36:02;20.93;;;12.07;;
56307;SDS011;42217;50.422;7.210;2022-11-20T00:38:29;23.23;;;13.03;;
56307;SDS011;42217;50.422;7.210;2022-11-20T00:40:59;23.00;;;10.83;;
56307;SDS011;42217;50.422;7.210;2022-11-20T00:43:25;24.63;;;10.90;;
56307;SDS011;42217;50.422;7.210;2022-11-20T00:46:02;20.83;;;10.73;;
56307;SDS011;42217;50.422;7.210;2022-11-20T00:48:29;18.43;;;10.30;;
56307;SDS011;42217;50.422;7.210;2022-11-20T00:50:55;20.83;;;12.40;;
56307;SDS011;42217;50.422;7.210;2022-11-20T00:53:22;19.57;;;11.63;;
56307;SDS011;42217;50.422;7.210;2022-11-20T00:58:21;20.48;;;11.32;;
56307;SDS011;42217;50.422;7.210;2022-11-20T01:00:48;20.17;;;10.97;;
56307;SDS011;42217;50.422;7.210;2022-11-20T01:03:15;25.63;;;13.87;;
56307;SDS011;42217;50.422;7.210;2022-11-20T01:05:41;25.20;;;13.07;;
56307;SDS011;42217;50.422;7.210;2022-11-20T01:08:07;22.73;;;12.80;;
56307;SDS011;42217;50.422;7.210;2022-11-20T01:10:33;23.00;;;11.43;;
56307;SDS011;42217;50.422;7.210;2022-11-20T01:12:58;20.17;;;11.27;;
56307;SDS011;42217;50.422;7.210;2022-11-20T01:15:43;18.47;;;11.37;;
56307;SDS011;42217;50.422;7.210;2022-11-20T01:18:08;22.03;;;10.83;;
56307;SDS011;42217;50.422;7.210;2022-11-20T01:20:34;20.90;;;10.37;;
56307;SDS011;42217;50.422;7.210;2022-11-20T01:23:01;18.37;;;10.30;;
56307;SDS011;42217;50.422;7.210;2022-11-20T01:25:28;17.13;;;11.23;;
56307;SDS011;42217;50.422;7.210;2022-11-20T01:27:54;18.03;;;11.23;;
56307;SDS011;42217;50.422;7.210;2022-11-20T01:30:19;20.47;;;10.97;;
56307;SDS011;42217;50.422;7.210;2022-11-20T01:32:45;22.60;;;10.80;;
56307;SDS011;42217;50.422;7.210;2022-11-20T01:35:10;18.30;;;10.37;;
56307;SDS011;42217;50.422;7.210;2022-11-20T01:37:36;19.43;;;10.50;;
56307;SDS011;42217;50.422;7.210;2022-11-20T01:40:02;22.20;;;11.93;;
56307;SDS011;42217;50.422;7.210;2022-11-20T01:42:28;19.90;;;10.40;;
56307;SDS011;42217;50.422;7.210;2022-11-20T01:48:12;18.63;;;9.17;;
56307;SDS011;42217;50.422;7.210;2022-11-20T01:50:38;21.20;;;11.83;;
56307;SDS011;42217;50.422;7.210;2022-11-20T01:53:07;18.50;;;9.60;;
56307;SDS011;42217;50.422;7.210;2022-11-20T01:55:36;21.30;;;11.40;;
56307;SDS011;42217;50.422;7.210;2022-11-20T01:58:08;21.42;;;11.20;;
56307;SDS011;42217;50.422;7.210;2022-11-20T02:00:34;20.23;;;11.87;;
56307;SDS011;42217;50.422;7.210;2022-11-20T02:03:01;17.07;;;10.57;;
56307;SDS011;42217;50.422;7.210;2022-11-20T02:05:32;16.03;;;9.83;;
56307;SDS011;42217;50.422;7.210;2022-11-20T02:08:04;19.55;;;11.38;;
56307;SDS011;42217;50.422;7.210;2022-11-20T02:10:31;20.97;;;11.07;;
56307;SDS011;42217;50.422;7.210;2022-11-20T02:12:57;21.70;;;10.63;;
56307;SDS011;42217;50.422;7.210;2022-11-20T02:15:42;16.03;;;9.13;;
56307;SDS011;42217;50.422;7.210;2022-11-20T02:18:09;19.73;;;11.17;;
56307;SDS011;42217;50.422;7.210;2022-11-20T02:20:37;18.77;;;10.47;;
56307;SDS011;42217;50.422;7.210;2022-11-20T02:23:08;17.10;;;9.77;;
56307;SDS011;42217;50.422;7.210;2022-11-20T02:25:55;25.13;;;12.67;;
56307;SDS011;42217;50.422;7.210;2022-11-20T02:28:23;17.37;;;9.90;;
56307;SDS011;42217;50.422;7.210;2022-11-20T02:30:49;16.63;;;9.47;;
56307;SDS011;42217;50.422;7.210;2022-11-20T02:33:14;22.23;;;11.73;;
56307;SDS011;42217;50.422;7.210;2022-11-20T02:35:41;18.70;;;11.00;;
56307;SDS011;42217;50.422;7.210;2022-11-20T02:38:08;19.97;;;13.30;;
56307;SDS011;42217;50.422;7.210;2022-11-20T02:40:35;19.23;;;10.60;;
56307;SDS011;42217;50.422;7.210;2022-11-20T02:43:00;18.27;;;9.40;;
56307;SDS011;42217;50.422;7.210;2022-11-20T02:45:26;18.83;;;8.70;;
56307;SDS011;42217;50.422;7.210;2022-11-20T02:47:52;18.60;;;10.37;;
56307;SDS011;42217;50.422;7.210;2022-11-20T02:50:18;18.07;;;10.43;;
56307;SDS011;42217;50.422;7.210;2022-11-20T02:52:44;13.90;;;9.50;;
56307;SDS011;42217;50.422;7.210;2022-11-20T02:55:09;17.90;;;11.13;;
56307;SDS011;42217;50.422;7.210;2022-11-20T02:57:35;18.77;;;9.80;;
56307;SDS011;42217;50.422;7.210;2022-11-20T03:00:01;12.23;;;7.57;;
56307;SDS011;42217;50.422;7.210;2022-11-20T03:02:30;17.17;;;10.43;;
56307;SDS011;42217;50.422;7.210;2022-11-20T03:04:56;16.77;;;9.30;;
56307;SDS011;42217;50.422;7.210;2022-11-20T03:07:22;15.77;;;8.83;;
56307;SDS011;42217;50.422;7.210;2022-11-20T03:09:48;14.10;;;8.37;;
56307;SDS011;42217;50.422;7.210;2022-11-20T03:12:13;17.90;;;8.93;;
56307;SDS011;42217;50.422;7.210;2022-11-20T03:14:39;15.33;;;8.40;;
56307;SDS011;42217;50.422;7.210;2022-11-20T03:17:05;14.70;;;7.60;;
56307;SDS011;42217;50.422;7.210;2022-11-20T03:19:30;19.03;;;10.67;;
56307;SDS011;42217;50.422;7.210;2022-11-20T03:21:56;15.80;;;9.77;;
56307;SDS011;42217;50.422;7.210;2022-11-20T03:24:22;15.73;;;9.40;;
56307;SDS011;42217;50.422;7.210;2022-11-20T03:26:48;18.87;;;10.63;;
56307;SDS011;42217;50.422;7.210;2022-11-20T03:29:13;22.43;;;9.63;;
56307;SDS011;42217;50.422;7.210;2022-11-20T03:31:39;22.40;;;10.30;;
56307;SDS011;42217;50.422;7.210;2022-11-20T03:34:06;16.63;;;9.23;;
56307;SDS011;42217;50.422;7.210;2022-11-20T03:36:33;13.17;;;8.13;;
56307;SDS011;42217;50.422;7.210;2022-11-20T03:38:59;16.63;;;8.50;;
56307;SDS011;42217;50.422;7.210;2022-11-20T03:41:28;14.03;;;8.23;;
56307;SDS011;42217;50.422;7.210;2022-11-20T03:46:25;13.53;;;8.03;;
56307;SDS011;42217;50.422;7.210;2022-11-20T03:48:52;15.93;;;9.07;;
56307;SDS011;42217;50.422;7.210;2022-11-20T03:53:44;15.13;;;8.30;;
56307;SDS011;42217;50.422;7.210;2022-11-20T03:56:12;12.43;;;7.63;;
56307;SDS011;42217;50.422;7.210;2022-11-20T03:58:39;12.83;;;7.67;;
56307;SDS011;42217;50.422;7.210;2022-11-20T04:01:09;13.67;;;8.63;;
56307;SDS011;42217;50.422;7.210;2022-11-20T04:03:36;12.80;;;7.97;;
56307;SDS011;42217;50.422;7.210;2022-11-20T04:06:04;13.63;;;8.40;;
56307;SDS011;42217;50.422;7.210;2022-11-20T04:08:32;19.23;;;11.00;;
56307;SDS011;42217;50.422;7.210;2022-11-20T04:11:07;18.43;;;12.60;;
56307;SDS011;42217;50.422;7.210;2022-11-20T04:13:33;17.73;;;10.90;;
56307;SDS011;42217;50.422;7.210;2022-11-20T04:15:59;22.57;;;11.20;;
56307;SDS011;42217;50.422;7.210;2022-11-20T04:18:24;17.83;;;10.93;;
56307;SDS011;42217;50.422;7.210;2022-11-20T04:20:50;18.30;;;10.97;;
56307;SDS011;42217;50.422;7.210;2022-11-20T04:23:16;25.73;;;13.07;;
56307;SDS011;42217;50.422;7.210;2022-11-20T04:25:41;25.63;;;12.27;;
56307;SDS011;42217;50.422;7.210;2022-11-20T04:28:07;24.50;;;11.80;;
56307;SDS011;42217;50.422;7.210;2022-11-20T04:30:32;20.73;;;12.20;;
56307;SDS011;42217;50.422;7.210;2022-11-20T04:32:58;25.43;;;10.40;;
56307;SDS011;42217;50.422;7.210;2022-11-20T04:35:24;23.87;;;10.10;;
56307;SDS011;42217;50.422;7.210;2022-11-20T04:37:52;26.00;;;12.50;;
56307;SDS011;42217;50.422;7.210;2022-11-20T04:40:18;16.83;;;10.67;;
56307;SDS011;42217;50.422;7.210;2022-11-20T04:42:44;28.03;;;11.97;;
56307;SDS011;42217;50.422;7.210;2022-11-20T04:45:09;20.20;;;11.47;;
56307;SDS011;42217;50.422;7.210;2022-11-20T04:47:35;19.77;;;10.67;;
56307;SDS011;42217;50.422;7.210;2022-11-20T04:50:01;20.10;;;10.67;;
56307;SDS011;42217;50.422;7.210;2022-11-20T04:52:27;21.67;;;11.60;;
56307;SDS011;42217;50.422;7.210;2022-11-20T04:54:53;19.57;;;11.23;;
56307;SDS011;42217;50.422;7.210;2022-11-20T04:57:18;19.30;;;9.97;;
56307;SDS011;42217;50.422;7.210;2022-11-20T04:59:44;14.37;;;8.70;;
56307;SDS011;42217;50.422;7.210;2022-11-20T05:02:10;17.87;;;10.23;;
56307;SDS011;42217;50.422;7.210;2022-11-20T05:04:36;24.77;;;12.30;;
56307;SDS011;42217;50.422;7.210;2022-11-20T05:07:02;20.93;;;11.40;;
56307;SDS011;42217;50.422;7.210;2022-11-20T05:09:28;17.23;;;10.33;;
56307;SDS011;42217;50.422;7.210;2022-11-20T05:11:53;21.67;;;10.83;;
56307;SDS011;42217;50.422;7.210;2022-11-20T05:14:19;18.97;;;10.17;;
56307;SDS011;42217;50.422;7.210;2022-11-20T05:16:44;18.30;;;10.03;;
56307;SDS011;42217;50.422;7.210;2022-11-20T05:19:10;19.57;;;11.10;;
56307;SDS011;42217;50.422;7.210;2022-11-20T05:21:36;22.60;;;9.80;;
56307;SDS011;42217;50.422;7.210;2022-11-20T05:24:02;16.07;;;8.47;;
56307;SDS011;42217;50.422;7.210;2022-11-20T05:26:27;21.03;;;10.67;;
56307;SDS011;42217;50.422;7.210;2022-11-20T05:28:53;18.23;;;9.30;;
56307;SDS011;42217;50.422;7.210;2022-11-20T05:31:19;19.43;;;10.40;;
56307;SDS011;42217;50.422;7.210;2022-11-20T05:33:47;15.47;;;9.30;;
56307;SDS011;42217;50.422;7.210;2022-11-20T05:36:13;20.23;;;10.63;;
56307;SDS011;42217;50.422;7.210;2022-11-20T05:38:40;18.20;;;8.77;;
56307;SDS011;42217;50.422;7.210;2022-11-20T05:41:07;20.07;;;9.70;;
56307;SDS011;42217;50.422;7.210;2022-11-20T05:43:37;24.20;;;11.90;;
56307;SDS011;42217;50.422;7.210;2022-11-20T05:46:03;17.73;;;10.30;;
56307;SDS011;42217;50.422;7.210;2022-11-20T05:48:31;17.00;;;9.03;;
56307;SDS011;42217;50.422;7.210;2022-11-20T05:50:58;23.47;;;10.20;;
56307;SDS011;42217;50.422;7.210;2022-11-20T05:53:24;22.37;;;9.93;;
56307;SDS011;42217;50.422;7.210;2022-11-20T05:55:57;16.63;;;9.80;;
56307;SDS011;42217;50.422;7.210;2022-11-20T05:58:24;22.70;;;11.33;;
56307;SDS011;42217;50.422;7.210;2022-11-20T06:00:50;20.07;;;10.17;;
56307;SDS011;42217;50.422;7.210;2022-11-20T06:03:16;16.90;;;8.80;;
56307;SDS011;42217;50.422;7.210;2022-11-20T06:05:41;19.47;;;9.93;;
56307;SDS011;42217;50.422;7.210;2022-11-20T06:08:07;20.80;;;9.63;;
56307;SDS011;42217;50.422;7.210;2022-11-20T06:10:33;25.43;;;10.73;;
56307;SDS011;42217;50.422;7.210;2022-11-20T06:12:58;18.57;;;9.70;;
56307;SDS011;42217;50.422;7.210;2022-11-20T06:15:24;25.23;;;12.50;;
56307;SDS011;42217;50.422;7.210;2022-11-20T06:17:53;21.57;;;10.53;;
56307;SDS011;42217;50.422;7.210;2022-11-20T06:20:20;21.60;;;10.63;;
56307;SDS011;42217;50.422;7.210;2022-11-20T06:22:46;20.80;;;9.73;;
56307;SDS011;42217;50.422;7.210;2022-11-20T06:25:12;16.00;;;8.20;;
56307;SDS011;42217;50.422;7.210;2022-11-20T06:27:38;11.00;;;7.13;;
56307;SDS011;42217;50.422;7.210;2022-11-20T06:30:04;18.90;;;9.17;;
56307;SDS011;42217;50.422;7.210;2022-11-20T06:32:30;19.23;;;10.07;;
56307;SDS011;42217;50.422;7.210;2022-11-20T06:34:55;16.97;;;9.57;;
56307;SDS011;42217;50.422;7.210;2022-11-20T06:37:21;20.73;;;9.97;;
56307;SDS011;42217;50.422;7.210;2022-11-20T06:39:47;22.03;;;10.33;;
56307;SDS011;42217;50.422;7.210;2022-11-20T06:42:12;25.13;;;10.13;;
56307;SDS011;42217;50.422;7.210;2022-11-20T06:44:38;17.77;;;9.80;;
56307;SDS011;42217;50.422;7.210;2022-11-20T06:47:03;21.67;;;10.80;;
56307;SDS011;42217;50.422;7.210;2022-11-20T06:49:29;17.43;;;10.90;;
56307;SDS011;42217;50.422;7.210;2022-11-20T06:51:59;15.37;;;8.67;;
56307;SDS011;42217;50.422;7.210;2022-11-20T06:54:25;16.10;;;9.50;;
56307;SDS011;42217;50.422;7.210;2022-11-20T06:56:50;16.73;;;9.17;;
56307;SDS011;42217;50.422;7.210;2022-11-20T06:59:18;17.67;;;9.13;;
56307;SDS011;42217;50.422;7.210;2022-11-20T07:01:44;18.40;;;9.77;;
56307;SDS011;42217;50.422;7.210;2022-11-20T07:04:09;22.03;;;10.60;;
56307;SDS011;42217;50.422;7.210;2022-11-20T07:06:35;19.60;;;9.53;;
56307;SDS011;42217;50.422;7.210;2022-11-20T07:09:01;23.27;;;10.47;;
56307;SDS011;42217;50.422;7.210;2022-11-20T07:11:27;34.60;;;9.23;;
56307;SDS011;42217;50.422;7.210;2022-11-20T07:13:52;19.73;;;10.17;;
56307;SDS011;42217;50.422;7.210;2022-11-20T07:16:18;14.93;;;7.63;;
56307;SDS011;42217;50.422;7.210;2022-11-20T07:18:44;17.93;;;8.43;;
56307;SDS011;42217;50.422;7.210;2022-11-20T07:21:09;14.73;;;8.47;;
56307;SDS011;42217;50.422;7.210;2022-11-20T07:23:36;13.73;;;7.73;;
56307;SDS011;42217;50.422;7.210;2022-11-20T07:26:08;15.50;;;8.10;;
56307;SDS011;42217;50.422;7.210;2022-11-20T07:28:35;15.93;;;8.87;;
56307;SDS011;42217;50.422;7.210;2022-11-20T07:31:01;15.60;;;9.23;;
56307;SDS011;42217;50.422;7.210;2022-11-20T07:33:28;13.10;;;7.60;;
56307;SDS011;42217;50.422;7.210;2022-11-20T07:35:53;17.43;;;7.67;;
56307;SDS011;42217;50.422;7.210;2022-11-20T07:38:19;20.60;;;9.97;;
56307;SDS011;42217;50.422;7.210;2022-11-20T07:40:45;15.33;;;9.23;;
56307;SDS011;42217;50.422;7.210;2022-11-20T07:43:11;12.80;;;8.43;;
56307;SDS011;42217;50.422;7.210;2022-11-20T07:45:36;12.87;;;7.63;;
56307;SDS011;42217;50.422;7.210;2022-11-20T07:48:02;16.30;;;8.67;;
56307;SDS011;42217;50.422;7.210;2022-11-20T07:50:28;15.67;;;8.27;;
56307;SDS011;42217;50.422;7.210;2022-11-20T07:53:04;16.17;;;8.20;;
56307;SDS011;42217;50.422;7.210;2022-11-20T07:55:29;13.90;;;8.87;;
56307;SDS011;42217;50.422;7.210;2022-11-20T07:57:55;13.20;;;8.13;;
56307;SDS011;42217;50.422;7.210;2022-11-20T08:00:24;13.47;;;8.10;;
56307;SDS011;42217;50.422;7.210;2022-11-20T08:02:51;16.13;;;8.90;;
56307;SDS011;42217;50.422;7.210;2022-11-20T08:05:17;22.40;;;9.53;;
56307;SDS011;42217;50.422;7.210;2022-11-20T08:07:43;36.17;;;9.87;;
56307;SDS011;42217;50.422;7.210;2022-11-20T08:10:10;18.53;;;11.07;;
56307;SDS011;42217;50.422;7.210;2022-11-20T08:12:43;21.23;;;11.20;;
56307;SDS011;42217;50.422;7.210;2022-11-20T08:15:31;24.87;;;10.60;;
56307;SDS011;42217;50.422;7.210;2022-11-20T08:18:30;25.67;;;11.83;;
56307;SDS011;42217;50.422;7.210;2022-11-20T08:20:49;19.47;;;10.73;;
56307;SDS011;42217;50.422;7.210;2022-11-20T08:23:15;20.07;;;9.33;;
56307;SDS011;42217;50.422;7.210;2022-11-20T08:25:40;26.37;;;10.27;;
56307;SDS011;42217;50.422;7.210;2022-11-20T08:28:08;34.00;;;10.87;;
56307;SDS011;42217;50.422;7.210;2022-11-20T08:30:35;19.67;;;9.73;;
56307;SDS011;42217;50.422;7.210;2022-11-20T08:33:03;23.90;;;10.67;;
56307;SDS011;42217;50.422;7.210;2022-11-20T08:35:37;18.93;;;10.00;;
56307;SDS011;42217;50.422;7.210;2022-11-20T08:38:06;23.95;;;10.20;;
56307;SDS011;42217;50.422;7.210;2022-11-20T08:40:32;20.67;;;10.40;;
56307;SDS011;42217;50.422;7.210;2022-11-20T08:42:58;17.67;;;9.10;;
56307;SDS011;42217;50.422;7.210;2022-11-20T08:45:24;16.83;;;9.57;;
56307;SDS011;42217;50.422;7.210;2022-11-20T08:47:50;24.80;;;11.57;;
56307;SDS011;42217;50.422;7.210;2022-11-20T08:50:16;21.70;;;11.00;;
56307;SDS011;42217;50.422;7.210;2022-11-20T08:52:42;20.17;;;10.93;;
56307;SDS011;42217;50.422;7.210;2022-11-20T08:55:08;23.03;;;10.20;;
56307;SDS011;42217;50.422;7.210;2022-11-20T08:57:35;18.40;;;10.10;;
56307;SDS011;42217;50.422;7.210;2022-11-20T09:00:02;18.20;;;9.87;;
56307;SDS011;42217;50.422;7.210;2022-11-20T09:02:30;25.20;;;10.97;;
56307;SDS011;42217;50.422;7.210;2022-11-20T09:04:57;22.43;;;11.60;;
56307;SDS011;42217;50.422;7.210;2022-11-20T09:07:23;18.67;;;11.97;;
56307;SDS011;42217;50.422;7.210;2022-11-20T09:09:49;21.33;;;11.70;;
56307;SDS011;42217;50.422;7.210;2022-11-20T09:12:14;25.60;;;11.57;;
56307;SDS011;42217;50.422;7.210;2022-11-20T09:14:40;22.00;;;10.77;;
56307;SDS011;42217;50.422;7.210;2022-11-20T09:17:06;24.27;;;9.97;;
56307;SDS011;42217;50.422;7.210;2022-11-20T09:19:32;18.33;;;10.17;;
56307;SDS011;42217;50.422;7.210;2022-11-20T09:21:58;20.93;;;10.63;;
56307;SDS011;42217;50.422;7.210;2022-11-20T09:24:25;19.37;;;10.13;;
56307;SDS011;42217;50.422;7.210;2022-11-20T09:26:51;21.80;;;10.63;;
56307;SDS011;42217;50.422;7.210;2022-11-20T09:29:17;16.70;;;10.07;;
56307;SDS011;42217;50.422;7.210;2022-11-20T09:31:42;20.47;;;9.77;;
56307;SDS011;42217;50.422;7.210;2022-11-20T09:34:08;22.67;;;9.63;;
56307;SDS011;42217;50.422;7.210;2022-11-20T09:36:34;21.97;;;12.97;;
56307;SDS011;42217;50.422;7.210;2022-11-20T09:39:00;21.73;;;10.93;;
56307;SDS011;42217;50.422;7.210;2022-11-20T09:44:13;26.80;;;12.30;;
56307;SDS011;42217;50.422;7.210;2022-11-20T09:55:23;26.93;;;11.90;;
56307;SDS011;42217;50.422;7.210;2022-11-20T09:57:50;24.27;;;12.40;;
56307;SDS011;42217;50.422;7.210;2022-11-20T10:00:17;17.60;;;9.73;;
56307;SDS011;42217;50.422;7.210;2022-11-20T10:02:55;19.27;;;10.47;;
56307;SDS011;42217;50.422;7.210;2022-11-20T10:05:33;20.30;;;10.97;;
56307;SDS011;42217;50.422;7.210;2022-11-20T10:10:43;18.73;;;10.77;;
56307;SDS011;42217;50.422;7.210;2022-11-20T10:16:33;23.53;;;11.13;;
56307;SDS011;42217;50.422;7.210;2022-11-20T10:24:56;16.67;;;10.82;;
56307;SDS011;42217;50.422;7.210;2022-11-20T10:30:10;20.80;;;11.30;;
56307;SDS011;42217;50.422;7.210;2022-11-20T10:32:42;19.23;;;11.17;;
56307;SDS011;42217;50.422;7.210;2022-11-20T10:37:56;19.73;;;10.80;;
56307;SDS011;42217;50.422;7.210;2022-11-20T10:43:06;21.30;;;12.00;;
56307;SDS011;42217;50.422;7.210;2022-11-20T10:46:06;18.77;;;9.87;;
56307;SDS011;42217;50.422;7.210;2022-11-20T10:48:37;17.87;;;10.30;;
56307;SDS011;42217;50.422;7.210;2022-11-20T10:56:50;14.07;;;9.50;;
56307;SDS011;42217;50.422;7.210;2022-11-20T11:02:35;18.90;;;10.13;;
56307;SDS011;42217;50.422;7.210;2022-11-20T11:05:16;13.20;;;8.03;;
56307;SDS011;42217;50.422;7.210;2022-11-20T11:07:46;14.13;;;8.70;;
56307;SDS011;42217;50.422;7.210;2022-11-20T11:12:53;11.87;;;8.13;;
56307;SDS011;42217;50.422;7.210;2022-11-20T11:15:52;13.63;;;9.87;;
56307;SDS011;42217;50.422;7.210;2022-11-20T11:18:10;14.53;;;8.77;;
56307;SDS011;42217;50.422;7.210;2022-11-20T11:20:49;13.57;;;8.63;;
56307;SDS011;42217;50.422;7.210;2022-11-20T11:23:56;16.60;;;10.07;;
56307;SDS011;42217;50.422;7.210;2022-11-20T11:26:21;16.83;;;8.67;;
56307;SDS011;42217;50.422;7.210;2022-11-20T11:31:26;17.43;;;9.63;;
56307;SDS011;42217;50.422;7.210;2022-11-20T11:34:06;19.63;;;9.67;;
56307;SDS011;42217;50.422;7.210;2022-11-20T11:36:36;13.18;;;8.93;;
56307;SDS011;42217;50.422;7.210;2022-11-20T11:39:02;16.73;;;9.60;;
56307;SDS011;42217;50.422;7.210;2022-11-20T11:41:33;13.87;;;8.43;;
56307;SDS011;42217;50.422;7.210;2022-11-20T11:44:12;14.33;;;9.23;;
56307;SDS011;42217;50.422;7.210;2022-11-20T11:47:01;17.17;;;9.30;;
56307;SDS011;42217;50.422;7.210;2022-11-20T11:49:29;14.40;;;9.77;;
56307;SDS011;42217;50.422;7.210;2022-11-20T11:51:59;18.77;;;11.37;;
56307;SDS011;42217;50.422;7.210;2022-11-20T11:54:44;16.90;;;12.10;;
56307;SDS011;42217;50.422;7.210;2022-11-20T12:13:19;66.27;;;34.70;;
56307;SDS011;42217;50.422;7.210;2022-11-20T12:15:58;16.73;;;10.70;;
56307;SDS011;42217;50.422;7.210;2022-11-20T12:18:25;14.73;;;8.90;;
56307;SDS011;42217;50.422;7.210;2022-11-20T12:21:02;14.07;;;9.20;;
56307;SDS011;42217;50.422;7.210;2022-11-20T12:23:51;14.90;;;9.17;;
56307;SDS011;42217;50.422;7.210;2022-11-20T12:29:01;17.03;;;7.70;;
56307;SDS011;42217;50.422;7.210;2022-11-20T12:31:44;11.40;;;7.80;;
56307;SDS011;42217;50.422;7.210;2022-11-20T12:34:39;10.03;;;6.57;;
56307;SDS011;42217;50.422;7.210;2022-11-20T12:39:48;11.00;;;7.13;;
56307;SDS011;42217;50.422;7.210;2022-11-20T12:42:31;9.70;;;7.50;;
56307;SDS011;42217;50.422;7.210;2022-11-20T12:48:03;11.83;;;6.70;;
56307;SDS011;42217;50.422;7.210;2022-11-20T12:53:27;13.20;;;7.60;;
56307;SDS011;42217;50.422;7.210;2022-11-20T12:55:58;8.63;;;5.40;;
56307;SDS011;42217;50.422;7.210;2022-11-20T12:58:56;3.83;;;2.60;;
56307;SDS011;42217;50.422;7.210;2022-11-20T13:02:16;6.00;;;4.63;;
56307;SDS011;42217;50.422;7.210;2022-11-20T13:04:51;10.87;;;5.80;;
56307;SDS011;42217;50.422;7.210;2022-11-20T13:07:30;8.45;;;5.55;;
56307;SDS011;42217;50.422;7.210;2022-11-20T13:09:57;10.67;;;6.70;;
56307;SDS011;42217;50.422;7.210;2022-11-20T13:18:16;10.43;;;5.87;;
56307;SDS011;42217;50.422;7.210;2022-11-20T13:20:44;9.53;;;7.30;;
56307;SDS011;42217;50.422;7.210;2022-11-20T13:23:11;10.03;;;6.93;;
56307;SDS011;42217;50.422;7.210;2022-11-20T13:25:47;12.93;;;6.23;;
56307;SDS011;42217;50.422;7.210;2022-11-20T13:30:50;10.67;;;6.27;;
56307;SDS011;42217;50.422;7.210;2022-11-20T13:36:19;8.50;;;6.77;;
56307;SDS011;42217;50.422;7.210;2022-11-20T13:38:48;9.77;;;6.47;;
56307;SDS011;42217;50.422;7.210;2022-11-20T13:41:34;12.57;;;6.60;;
56307;SDS011;42217;50.422;7.210;2022-11-20T13:46:47;11.73;;;8.23;;
56307;SDS011;42217;50.422;7.210;2022-11-20T13:49:18;11.23;;;7.60;;
56307;SDS011;42217;50.422;7.210;2022-11-20T13:51:46;11.13;;;7.93;;
56307;SDS011;42217;50.422;7.210;2022-11-20T14:02:40;6.50;;;4.47;;
56307;SDS011;42217;50.422;7.210;2022-11-20T14:05:11;9.60;;;5.63;;
56307;SDS011;42217;50.422;7.210;2022-11-20T14:07:46;11.40;;;6.13;;
56307;SDS011;42217;50.422;7.210;2022-11-20T14:10:24;12.83;;;6.87;;
56307;SDS011;42217;50.422;7.210;2022-11-20T14:12:52;10.67;;;5.50;;
56307;SDS011;42217;50.422;7.210;2022-11-20T14:15:31;5.57;;;3.47;;
56307;SDS011;42217;50.422;7.210;2022-11-20T14:17:58;5.10;;;3.33;;
56307;SDS011;42217;50.422;7.210;2022-11-20T14:20:28;2.80;;;1.70;;
56307;SDS011;42217;50.422;7.210;2022-11-20T14:22:56;2.90;;;2.20;;
56307;SDS011;42217;50.422;7.210;2022-11-20T14:25:25;2.53;;;2.10;;
56307;SDS011;42217;50.422;7.210;2022-11-20T14:27:57;11.27;;;5.43;;
56307;SDS011;42217;50.422;7.210;2022-11-20T14:30:26;4.83;;;2.87;;
56307;SDS011;42217;50.422;7.210;2022-11-20T14:33:12;4.57;;;3.30;;
56307;SDS011;42217;50.422;7.210;2022-11-20T14:35:46;6.40;;;3.47;;
56307;SDS011;42217;50.422;7.210;2022-11-20T14:38:14;3.60;;;2.40;;
56307;SDS011;42217;50.422;7.210;2022-11-20T14:40:41;2.00;;;1.73;;
56307;SDS011;42217;50.422;7.210;2022-11-20T14:45:48;6.57;;;3.07;;
56307;SDS011;42217;50.422;7.210;2022-11-20T14:48:22;2.30;;;1.70;;
56307;SDS011;42217;50.422;7.210;2022-11-20T14:50:52;1.30;;;0.95;;
56307;SDS011;42217;50.422;7.210;2022-11-20T14:53:22;2.00;;;1.90;;
56307;SDS011;42217;50.422;7.210;2022-11-20T14:55:54;1.87;;;1.70;;
56307;SDS011;42217;50.422;7.210;2022-11-20T14:58:22;2.10;;;1.55;;
56307;SDS011;42217;50.422;7.210;2022-11-20T15:00:57;1.53;;;1.30;;
56307;SDS011;42217;50.422;7.210;2022-11-20T15:03:35;3.70;;;1.47;;
56307;SDS011;42217;50.422;7.210;2022-11-20T15:06:02;1.80;;;1.70;;
56307;SDS011;42217;50.422;7.210;2022-11-20T15:08:28;2.40;;;1.70;;
56307;SDS011;42217;50.422;7.210;2022-11-20T15:10:54;1.70;;;1.60;;
56307;SDS011;42217;50.422;7.210;2022-11-20T15:13:29;1.87;;;1.60;;
56307;SDS011;42217;50.422;7.210;2022-11-20T15:16:01;1.40;;;1.30;;
56307;SDS011;42217;50.422;7.210;2022-11-20T15:18:32;1.07;;;1.07;;
56307;SDS011;42217;50.422;7.210;2022-11-20T15:21:03;1.60;;;1.20;;
56307;SDS011;42217;50.422;7.210;2022-11-20T15:23:34;2.30;;;1.67;;
56307;SDS011;42217;50.422;7.210;2022-11-20T15:26:00;3.30;;;1.87;;
56307;SDS011;42217;50.422;7.210;2022-11-20T15:31:16;3.03;;;2.33;;
56307;SDS011;42217;50.422;7.210;2022-11-20T15:33:45;4.40;;;2.23;;
56307;SDS011;42217;50.422;7.210;2022-11-20T15:36:11;3.03;;;2.30;;
56307;SDS011;42217;50.422;7.210;2022-11-20T15:38:37;3.83;;;2.80;;
56307;SDS011;42217;50.422;7.210;2022-11-20T15:41:03;5.17;;;3.77;;
56307;SDS011;42217;50.422;7.210;2022-11-20T15:43:30;3.17;;;2.30;;
56307;SDS011;42217;50.422;7.210;2022-11-20T15:46:00;5.23;;;2.70;;
56307;SDS011;42217;50.422;7.210;2022-11-20T15:48:33;2.40;;;1.67;;
56307;SDS011;42217;50.422;7.210;2022-11-20T15:53:37;2.87;;;2.33;;
56307;SDS011;42217;50.422;7.210;2022-11-20T15:56:03;1.70;;;1.60;;
56307;SDS011;42217;50.422;7.210;2022-11-20T15:58:29;3.37;;;2.20;;
56307;SDS011;42217;50.422;7.210;2022-11-20T16:00:55;9.97;;;2.93;;
56307;SDS011;42217;50.422;7.210;2022-11-20T16:03:21;3.87;;;2.60;;
56307;SDS011;42217;50.422;7.210;2022-11-20T16:05:47;5.23;;;3.70;;
56307;SDS011;42217;50.422;7.210;2022-11-20T16:08:13;2.90;;;1.97;;
56307;SDS011;42217;50.422;7.210;2022-11-20T16:10:40;3.53;;;2.07;;
56307;SDS011;42217;50.422;7.210;2022-11-20T16:13:24;7.23;;;2.70;;
56307;SDS011;42217;50.422;7.210;2022-11-20T16:16:17;2.83;;;2.10;;
56307;SDS011;42217;50.422;7.210;2022-11-20T16:18:46;3.10;;;1.60;;
56307;SDS011;42217;50.422;7.210;2022-11-20T16:21:11;7.17;;;2.10;;
56307;SDS011;42217;50.422;7.210;2022-11-20T16:23:40;2.37;;;1.77;;
56307;SDS011;42217;50.422;7.210;2022-11-20T16:26:14;4.73;;;3.07;;
56307;SDS011;42217;50.422;7.210;2022-11-20T16:28:42;4.03;;;3.37;;
56307;SDS011;42217;50.422;7.210;2022-11-20T16:31:12;2.93;;;2.33;;
56307;SDS011;42217;50.422;7.210;2022-11-20T16:33:40;2.50;;;2.30;;
56307;SDS011;42217;50.422;7.210;2022-11-20T16:36:09;5.37;;;2.40;;